Time;durP1;ratioP1;P1;durP2;ratioP2;P2;SDS_P1;SDS_P2;PMS_P1;PMS_P2;Temp;Humidity;BMP_temperature;BMP_pressure;BME280_temperature;BME280_humidity;BME280_pressure;Samples;Min_cycle;Max_cycle;Signal;HPM_P1;HPM_P2
2024/01/27 00:01:42;;;;;;;1.30;1.27;;;;;;;1.80;100.00;100397.81;4173520;28;20246;-56
2024/01/27 00:03:44;;;;;;;5.47;2.38;;;;;;;1.80;100.00;100395.13;4171220;28;20315;-55
2024/01/27 00:05:46;;;;;;;1.50;1.40;;;;;;;1.75;100.00;100396.56;4173973;28;20211;-53
2024/01/27 00:07:48;;;;;;;1.60;1.58;;;;;;;1.69;100.00;100398.00;4153036;28;20233;-54
2024/01/27 00:09:49;;;;;;;1.85;1.77;;;;;;;1.79;100.00;100401.53;4159577;28;20207;-53
2024/01/27 00:11:51;;;;;;;1.50;1.42;;;;;;;1.70;100.00;100405.13;4153273;28;20217;-55
2024/01/27 00:13:53;;;;;;;2.92;2.67;;;;;;;1.68;100.00;100399.00;4170538;28;20734;-57
2024/01/27 00:15:55;;;;;;;1.88;1.77;;;;;;;1.65;100.00;100404.69;4158521;28;20212;-53
2024/01/27 00:17:56;;;;;;;2.28;2.00;;;;;;;1.65;100.00;100404.69;4175343;28;20581;-52
2024/01/27 00:19:58;;;;;;;2.33;2.13;;;;;;;1.58;100.00;100414.38;4158428;28;20254;-52
2024/01/27 00:22:00;;;;;;;1.92;1.83;;;;;;;1.67;100.00;100413.50;4154458;28;20216;-52
2024/01/27 00:24:03;;;;;;;2.55;2.45;;;;;;;1.68;100.00;100415.19;4154009;28;20584;-53
2024/01/27 00:26:05;;;;;;;6.28;3.83;;;;;;;1.72;100.00;100405.81;4154253;28;20635;-54
2024/01/27 00:28:06;;;;;;;2.63;2.42;;;;;;;1.51;100.00;100399.78;4155257;28;20697;-52
2024/01/27 00:30:08;;;;;;;3.38;3.03;;;;;;;1.45;100.00;100394.97;4157893;28;20306;-55
2024/01/27 00:32:10;;;;;;;2.67;2.47;;;;;;;1.60;100.00;100400.75;4174046;28;20204;-52
2024/01/27 00:34:12;;;;;;;3.78;3.47;;;;;;;1.54;100.00;100402.19;4158174;28;20307;-54
2024/01/27 00:36:14;;;;;;;4.65;2.20;;;;;;;1.46;100.00;100412.84;4158541;28;20584;-53
2024/01/27 00:38:16;;;;;;;3.30;2.63;;;;;;;1.51;100.00;100402.47;4159324;28;20251;-51
2024/01/27 00:40:17;;;;;;;2.25;2.10;;;;;;;1.63;100.00;100406.72;4175074;28;20204;-51
2024/01/27 00:42:23;;;;;;;3.08;1.00;;;;;;;1.32;100.00;100405.22;4159504;28;20231;-51
2024/01/27 00:44:26;;;;;;;2.40;2.20;;;;;;;1.25;100.00;100409.50;4171531;28;20768;-52
2024/01/27 00:46:28;;;;;;;1.65;1.55;;;;;;;1.23;100.00;100408.81;4172839;28;20466;-51
2024/01/27 00:48:29;;;;;;;2.58;2.38;;;;;;;1.20;100.00;100403.69;4157996;28;20211;-51
2024/01/27 00:50:31;;;;;;;2.40;2.28;;;;;;;1.28;100.00;100398.41;4156124;28;20215;-51
2024/01/27 00:52:33;;;;;;;3.10;1.90;;;;;;;1.29;100.00;100415.44;4155840;28;20229;-51
2024/01/27 00:54:34;;;;;;;2.95;2.58;;;;;;;1.22;100.00;100417.84;4170689;28;20224;-51
2024/01/27 00:56:36;;;;;;;1.25;1.25;;;;;;;1.18;100.00;100411.06;4176374;28;20661;-51
2024/01/27 00:58:38;;;;;;;1.00;1.00;;;;;;;1.24;100.00;100415.91;4190216;28;20281;-51
2024/01/27 01:00:40;;;;;;;5.10;1.30;;;;;;;1.17;100.00;100420.16;4191057;28;20204;-51
2024/01/27 01:02:42;;;;;;;3.03;1.67;;;;;;;1.28;100.00;100417.28;4168771;28;20244;-51
2024/01/27 01:04:44;;;;;;;2.95;2.70;;;;;;;1.16;100.00;100421.16;4168945;28;20216;-52
2024/01/27 01:06:46;;;;;;;1.35;1.35;;;;;;;1.17;100.00;100411.22;4175286;28;20297;-50
2024/01/27 01:08:48;;;;;;;1.25;1.25;;;;;;;1.12;100.00;100425.13;4171398;28;20267;-51
2024/01/27 01:10:50;;;;;;;2.05;1.95;;;;;;;1.20;100.00;100419.03;4170074;28;20712;-51
2024/01/27 01:12:51;;;;;;;5.88;1.48;;;;;;;1.05;100.00;100420.44;4175249;28;20230;-51
2024/01/27 01:14:53;;;;;;;1.75;1.65;;;;;;;1.20;100.00;100419.84;4177142;28;20242;-51
2024/01/27 01:16:55;;;;;;;0.93;0.93;;;;;;;1.09;100.00;100414.63;4192881;28;20619;-52
2024/01/27 01:18:57;;;;;;;2.15;2.03;;;;;;;1.04;100.00;100422.31;4192758;28;20712;-51
2024/01/27 01:20:59;;;;;;;2.35;2.15;;;;;;;1.10;100.00;100418.19;4177763;28;20211;-51
2024/01/27 01:23:00;;;;;;;1.63;1.52;;;;;;;1.18;100.00;100421.00;4177791;28;20590;-50
2024/01/27 01:25:02;;;;;;;1.40;1.33;;;;;;;1.00;100.00;100420.88;4174751;28;20212;-51
2024/01/27 01:27:04;;;;;;;2.28;2.15;;;;;;;0.93;100.00;100424.28;4160621;28;20721;-52
2024/01/27 01:29:06;;;;;;;10.48;2.20;;;;;;;1.01;100.00;100427.97;4172002;28;20192;-52
2024/01/27 01:31:08;;;;;;;2.15;1.98;;;;;;;0.95;100.00;100431.22;4190182;28;20214;-51
2024/01/27 01:33:10;;;;;;;2.65;2.45;;;;;;;0.99;100.00;100426.41;4176965;28;20220;-51
2024/01/27 01:35:13;;;;;;;6.78;3.10;;;;;;;0.93;100.00;100433.22;4188935;28;20386;-52
2024/01/27 01:37:14;;;;;;;7.97;1.80;;;;;;;0.84;100.00;100428.69;4188377;28;20233;-51
2024/01/27 01:39:16;;;;;;;1.67;1.58;;;;;;;0.88;100.00;100424.72;4177237;28;20648;-51
2024/01/27 01:41:18;;;;;;;1.50;1.50;;;;;;;0.86;100.00;100442.88;4178595;28;20204;-52
2024/01/27 01:43:20;;;;;;;3.75;2.63;;;;;;;0.83;100.00;100440.47;4182638;28;20228;-52
2024/01/27 01:45:21;;;;;;;8.93;1.83;;;;;;;0.97;100.00;100440.03;4177516;28;20210;-51
2024/01/27 01:47:23;;;;;;;1.98;1.88;;;;;;;0.85;100.00;100451.94;4177967;28;20236;-52
2024/01/27 01:49:26;;;;;;;2.17;2.08;;;;;;;0.83;100.00;100453.94;4178057;28;20212;-52
2024/01/27 01:51:28;;;;;;;1.80;1.75;;;;;;;0.78;100.00;100461.59;4193130;28;20223;-53
2024/01/27 01:53:30;;;;;;;2.40;2.22;;;;;;;0.72;100.00;100463.97;4161364;28;20240;-52
2024/01/27 01:55:32;;;;;;;2.50;1.67;;;;;;;0.74;100.00;100460.16;4185109;28;20208;-52
2024/01/27 01:57:33;;;;;;;1.80;1.70;;;;;;;0.74;100.00;100465.53;4176415;28;20212;-53
2024/01/27 01:59:40;;;;;;;1.30;1.27;;;;;;;0.74;100.00;100462.03;4150634;28;20229;-51
2024/01/27 02:01:42;;;;;;;1.98;1.88;;;;;;;0.69;100.00;100465.09;4153537;28;20213;-51
2024/01/27 02:03:57;;;;;;;2.03;1.92;;;;;;;0.65;100.00;100466.41;4157139;28;20270;-51
2024/01/27 02:05:59;;;;;;;2.58;2.40;;;;;;;0.71;100.00;100465.84;4154746;28;20213;-51
2024/01/27 02:08:04;;;;;;;6.35;2.10;;;;;;;0.70;100.00;100463.28;4157495;28;20614;-52
2024/01/27 02:10:24;;;;;;;6.50;1.40;;;;;;;0.67;100.00;100472.50;4175863;28;20727;-53
2024/01/27 02:12:25;;;;;;;1.80;1.70;;;;;;;0.69;100.00;100466.97;4159635;28;20224;-52
2024/01/27 02:14:27;;;;;;;2.83;1.65;;;;;;;0.63;100.00;100459.44;4160495;28;20211;-52
2024/01/27 02:16:29;;;;;;;2.63;2.42;;;;;;;0.67;100.00;100455.50;4160382;28;20243;-51
2024/01/27 02:18:31;;;;;;;2.83;2.65;;;;;;;0.62;100.00;100455.88;4171256;28;20269;-51
2024/01/27 02:20:33;;;;;;;1.55;1.45;;;;;;;0.60;100.00;100457.88;4159306;28;20947;-50
2024/01/27 02:22:35;;;;;;;2.72;2.58;;;;;;;0.56;100.00;100458.31;4157266;28;20225;-51
2024/01/27 02:24:36;;;;;;;1.77;1.65;;;;;;;0.55;100.00;100462.81;4158748;28;20227;-51
2024/01/27 02:26:38;;;;;;;2.35;2.25;;;;;;;0.56;100.00;100467.22;4161243;28;20232;-51
2024/01/27 02:28:40;;;;;;;2.00;1.90;;;;;;;0.60;100.00;100473.19;4176056;28;20249;-51
2024/01/27 02:30:42;;;;;;;1.08;1.08;;;;;;;0.56;100.00;100477.16;4159790;28;22029;-51
2024/01/27 02:32:44;;;;;;;1.20;1.20;;;;;;;0.51;100.00;100474.03;4173878;28;20238;-51
2024/01/27 02:34:46;;;;;;;1.88;1.77;;;;;;;0.61;100.00;100472.22;4177021;28;20618;-50
2024/01/27 02:36:48;;;;;;;1.75;1.65;;;;;;;0.59;100.00;100468.78;4161107;28;20213;-51
2024/01/27 02:38:49;;;;;;;2.00;1.90;;;;;;;0.55;100.00;100468.22;4155958;28;20204;-51
2024/01/27 02:40:51;;;;;;;1.13;1.08;;;;;;;0.52;100.00;100476.56;4173145;28;20208;-50
2024/01/27 02:42:53;;;;;;;1.10;1.10;;;;;;;0.43;100.00;100479.25;4157689;28;20269;-50
2024/01/27 02:44:58;;;;;;;1.88;1.77;;;;;;;0.35;100.00;100479.94;4158961;28;20671;-51
2024/01/27 02:47:00;;;;;;;1.58;1.58;;;;;;;0.32;100.00;100477.53;4174754;28;20230;-51
2024/01/27 02:49:01;;;;;;;1.80;1.70;;;;;;;0.30;100.00;100473.25;4156710;28;20220;-50
2024/01/27 02:51:04;;;;;;;1.75;1.65;;;;;;;0.33;100.00;100487.28;4156978;28;20216;-50
2024/01/27 02:53:05;;;;;;;2.13;2.03;;;;;;;0.33;100.00;100487.28;4155433;28;20228;-51
2024/01/27 02:55:07;;;;;;;1.55;1.52;;;;;;;0.37;100.00;100477.97;4144885;28;20687;-51
2024/01/27 02:57:09;;;;;;;1.42;1.35;;;;;;;0.45;100.00;100488.03;4165017;28;20222;-51
2024/01/27 02:59:12;;;;;;;6.50;2.15;;;;;;;0.51;100.00;100488.34;4160109;28;20279;-51
2024/01/27 03:01:14;;;;;;;1.67;1.58;;;;;;;0.10;100.00;100484.94;4156421;28;20590;-51
2024/01/27 03:03:16;;;;;;;1.10;1.10;;;;;;;0.22;100.00;100483.88;4162043;28;20283;-50
2024/01/27 03:05:17;;;;;;;1.70;1.40;;;;;;;0.14;100.00;100481.84;4159425;28;20212;-49
2024/01/27 03:07:19;;;;;;;2.13;2.03;;;;;;;0.05;100.00;100485.38;4158180;28;20867;-50
2024/01/27 03:09:21;;;;;;;2.10;2.00;;;;;;;0.08;100.00;100482.38;4174372;28;20224;-51
2024/01/27 03:11:23;;;;;;;1.63;1.53;;;;;;;0.06;100.00;100484.38;4160625;28;20201;-50
2024/01/27 03:13:24;;;;;;;1.42;1.42;;;;;;;0.06;100.00;100483.50;4157949;28;20227;-51
2024/01/27 03:15:26;;;;;;;1.37;1.30;;;;;;;0.08;100.00;100485.09;4161478;28;20209;-51
2024/01/27 03:17:28;;;;;;;3.53;2.00;;;;;;;0.08;100.00;100481.56;4154272;28;20213;-51
2024/01/27 03:19:30;;;;;;;1.30;1.27;;;;;;;0.12;100.00;100478.44;4175196;28;20232;-51
2024/01/27 03:21:33;;;;;;;1.65;1.50;;;;;;;0.16;100.00;100489.78;4163264;28;20212;-51
2024/01/27 03:23:36;;;;;;;2.00;1.90;;;;;;;0.13;100.00;100485.53;4157430;28;20777;-51
2024/01/27 03:25:37;;;;;;;1.20;1.10;;;;;;;0.18;100.00;100482.44;4160612;28;20216;-51
2024/01/27 03:27:39;;;;;;;1.58;1.58;;;;;;;0.17;100.00;100486.97;4161066;28;20213;-51
2024/01/27 03:29:41;;;;;;;2.33;2.22;;;;;;;0.09;100.00;100488.63;4158515;28;20749;-52
2024/01/27 03:31:43;;;;;;;1.23;1.15;;;;;;;0.06;100.00;100488.88;4157210;28;20726;-51
2024/01/27 03:33:45;;;;;;;2.45;2.35;;;;;;;0.07;100.00;100486.06;4173891;28;20282;-52
2024/01/27 03:35:47;;;;;;;5.90;2.33;;;;;;;0.03;100.00;100487.34;4170559;28;20207;-51
2024/01/27 03:37:49;;;;;;;1.50;1.40;;;;;;;-0.02;100.00;100492.28;4160333;28;20287;-51
2024/01/27 03:39:50;;;;;;;1.85;1.75;;;;;;;-0.08;100.00;100500.03;4169638;28;20617;-51
2024/01/27 03:41:52;;;;;;;1.35;1.25;;;;;;;-0.06;100.00;100490.81;4176068;28;20203;-51
2024/01/27 03:43:54;;;;;;;1.20;1.20;;;;;;;-0.09;100.00;100500.19;4159040;28;20236;-51
2024/01/27 03:45:56;;;;;;;1.45;1.45;;;;;;;-0.13;100.00;100500.44;4169616;28;20204;-51
2024/01/27 03:47:57;;;;;;;1.63;1.60;;;;;;;-0.08;100.00;100507.25;4155435;28;20582;-51
2024/01/27 03:49:59;;;;;;;1.75;1.65;;;;;;;-0.16;100.00;100509.78;4170648;28;20686;-50
2024/01/27 03:52:01;;;;;;;2.08;1.90;;;;;;;-0.16;100.00;100510.59;4170092;28;20652;-51
2024/01/27 03:54:03;;;;;;;1.83;1.73;;;;;;;-0.14;100.00;100518.56;4154806;28;20216;-51
2024/01/27 03:56:05;;;;;;;1.98;1.25;;;;;;;-0.15;100.00;100516.84;4156600;28;20205;-51
2024/01/27 03:58:07;;;;;;;1.40;1.35;;;;;;;-0.12;100.00;100503.97;4177342;28;20662;-51
2024/01/27 04:00:11;;;;;;;1.70;1.60;;;;;;;-0.17;100.00;100508.03;4176711;28;20608;-50
2024/01/27 04:02:13;;;;;;;1.57;1.53;;;;;;;-0.20;100.00;100513.69;4171994;28;20208;-51
2024/01/27 04:04:15;;;;;;;3.15;2.25;;;;;;;-0.17;100.00;100518.81;4175607;28;20204;-51
2024/01/27 04:06:17;;;;;;;1.88;1.77;;;;;;;-0.16;100.00;100520.53;4173861;28;20239;-52
2024/01/27 04:08:18;;;;;;;2.15;1.90;;;;;;;-0.19;100.00;100518.09;4174523;28;20204;-52
2024/01/27 04:10:21;;;;;;;3.00;1.48;;;;;;;-0.19;100.00;100510.88;4174835;28;20204;-50
2024/01/27 04:12:22;;;;;;;1.58;1.48;;;;;;;-0.24;100.00;100518.50;4175964;28;20235;-50
2024/01/27 04:14:24;;;;;;;1.70;1.60;;;;;;;-0.25;100.00;100521.31;4174949;28;20204;-51
2024/01/27 04:16:26;;;;;;;2.08;1.90;;;;;;;-0.26;100.00;100516.91;4190436;28;20254;-51
2024/01/27 04:18:28;;;;;;;1.43;1.43;;;;;;;-0.26;100.00;100520.47;4172935;28;20247;-51
2024/01/27 04:20:30;;;;;;;0.90;0.90;;;;;;;-0.27;100.00;100520.59;4171382;28;20224;-52
2024/01/27 04:22:31;;;;;;;1.55;1.55;;;;;;;-0.29;100.00;100525.25;4157978;28;20236;-51
2024/01/27 04:24:33;;;;;;;1.83;1.73;;;;;;;-0.30;100.00;100524.41;4174757;28;20230;-50
2024/01/27 04:26:35;;;;;;;1.73;1.65;;;;;;;-0.24;100.00;100523.00;4171262;28;20219;-50
2024/01/27 04:28:37;;;;;;;1.90;1.80;;;;;;;-0.24;100.00;100523.00;4190357;28;20208;-52
2024/01/27 04:30:38;;;;;;;1.67;1.58;;;;;;;-0.26;100.00;100525.00;4174653;28;20200;-51
2024/01/27 04:32:40;;;;;;;1.05;1.05;;;;;;;-0.29;100.00;100519.88;4175058;28;20375;-52
2024/01/27 04:34:42;;;;;;;2.07;1.97;;;;;;;-0.24;100.00;100523.00;4175843;28;20299;-51
2024/01/27 04:36:44;;;;;;;3.00;2.00;;;;;;;-0.34;100.00;100516.72;4190541;28;20247;-51
2024/01/27 04:38:46;;;;;;;4.13;2.17;;;;;;;-0.34;100.00;100519.44;4189247;28;20203;-52
2024/01/27 04:40:48;;;;;;;1.20;1.20;;;;;;;-0.38;100.00;100520.66;4174151;28;20255;-51
2024/01/27 04:42:50;;;;;;;1.73;1.63;;;;;;;-0.40;100.00;100520.78;4175189;28;20223;-52
2024/01/27 04:44:53;;;;;;;1.03;1.03;;;;;;;-0.37;100.00;100509.78;4172200;28;20212;-52
2024/01/27 04:46:55;;;;;;;1.73;1.63;;;;;;;-0.40;100.00;100512.72;4174115;28;20574;-51
2024/01/27 04:48:56;;;;;;;1.60;1.60;;;;;;;-0.46;100.00;100528.53;4174404;28;20212;-51
2024/01/27 04:50:58;;;;;;;1.57;1.47;;;;;;;-0.48;100.00;100525.97;4174590;28;20208;-51
2024/01/27 04:53:00;;;;;;;2.00;1.88;;;;;;;-0.47;100.00;100534.91;4173928;28;20252;-52
2024/01/27 04:55:03;;;;;;;1.60;1.50;;;;;;;-0.50;100.00;100524.41;4192102;28;20230;-50
2024/01/27 04:57:05;;;;;;;2.03;1.97;;;;;;;-0.49;100.00;100531.50;4183002;28;20216;-52
2024/01/27 04:59:07;;;;;;;7.07;1.40;;;;;;;-0.54;100.00;100531.88;4178846;28;20211;-52
2024/01/27 05:01:08;;;;;;;1.47;1.40;;;;;;;-0.54;100.00;100531.88;4189998;28;20253;-51
2024/01/27 05:03:13;;;;;;;1.20;1.20;;;;;;;-0.45;100.00;100527.56;4180530;28;20240;-51
2024/01/27 05:05:16;;;;;;;14.07;2.13;;;;;;;-0.50;100.00;100529.78;4179777;28;20303;-51
2024/01/27 05:07:17;;;;;;;1.77;1.77;;;;;;;-0.52;100.00;100529.94;4178374;28;20203;-50
2024/01/27 05:09:19;;;;;;;2.08;1.98;;;;;;;-0.48;100.00;100520.59;4193580;28;20203;-51
2024/01/27 05:11:32;;;;;;;1.53;1.50;;;;;;;-0.47;100.00;100521.47;4188776;28;20199;-51
2024/01/27 05:13:34;;;;;;;1.87;1.77;;;;;;;-0.45;100.00;100524.88;4173167;28;20319;-51
2024/01/27 05:15:36;;;;;;;1.80;1.30;;;;;;;-0.50;100.00;100513.66;4178889;28;20216;-51
2024/01/27 05:17:37;;;;;;;1.58;1.58;;;;;;;-0.51;100.00;100520.00;4175430;28;20215;-51
2024/01/27 05:19:39;;;;;;;1.70;1.60;;;;;;;-0.61;100.00;100519.09;4176037;28;20216;-51
2024/01/27 05:21:41;;;;;;;2.23;1.70;;;;;;;-0.64;100.00;100524.72;4191721;28;20218;-51
2024/01/27 05:23:43;;;;;;;3.23;3.13;;;;;;;-0.62;100.00;100525.47;4178357;28;20227;-51
2024/01/27 05:25:44;;;;;;;1.50;1.50;;;;;;;-0.63;100.00;100521.03;4178798;28;20697;-52
2024/01/27 05:27:46;;;;;;;1.90;1.80;;;;;;;-0.58;100.00;100525.06;4162836;28;20687;-51
2024/01/27 05:29:48;;;;;;;2.03;1.90;;;;;;;-0.59;100.00;100533.25;4172662;28;20205;-51
2024/01/27 05:31:50;;;;;;;6.70;1.35;;;;;;;-0.63;100.00;100529.97;4178419;28;20270;-51
2024/01/27 05:33:52;;;;;;;1.73;1.67;;;;;;;-0.58;100.00;100524.22;4172391;28;20227;-51
2024/01/27 05:35:54;;;;;;;1.80;1.80;;;;;;;-0.66;100.00;100532.06;4194588;28;20273;-51
2024/01/27 05:37:56;;;;;;;1.77;1.67;;;;;;;-0.71;100.00;100528.91;4178390;28;20215;-51
2024/01/27 05:39:58;;;;;;;2.27;1.73;;;;;;;-0.65;100.00;100533.78;4177897;28;20223;-50
2024/01/27 05:42:00;;;;;;;1.33;1.33;;;;;;;-0.71;100.00;100539.66;4184349;28;20207;-51
2024/01/27 05:44:01;;;;;;;1.37;1.30;;;;;;;-0.73;100.00;100538.94;4177263;28;20216;-51
2024/01/27 05:46:03;;;;;;;1.95;1.85;;;;;;;-0.76;100.00;100533.81;4178132;28;20216;-51
2024/01/27 05:48:05;;;;;;;3.23;1.80;;;;;;;-0.76;100.00;100536.50;4173306;28;20215;-50
2024/01/27 05:50:08;;;;;;;2.00;1.90;;;;;;;-0.78;100.00;100538.47;4173253;28;20200;-51
2024/01/27 05:52:10;;;;;;;1.43;1.43;;;;;;;-0.82;100.00;100537.88;4171514;28;20200;-51
2024/01/27 05:54:24;;;;;;;2.03;1.93;;;;;;;-0.86;100.00;100546.34;4176973;28;20874;-51
2024/01/27 05:56:26;;;;;;;1.08;1.08;;;;;;;-0.88;100.00;100551.81;4193304;28;20273;-51
2024/01/27 05:58:28;;;;;;;1.50;1.50;;;;;;;-1.12;100.00;100550.34;4177692;28;20803;-51
2024/01/27 06:00:30;;;;;;;3.17;2.87;;;;;;;-1.06;100.00;100544.47;4171714;28;20701;-51
2024/01/27 06:02:31;;;;;;;1.83;1.70;;;;;;;-1.05;100.00;100544.34;4192260;28;20235;-50
2024/01/27 06:04:34;;;;;;;2.53;2.43;;;;;;;-1.03;100.00;100538.81;4181367;28;20216;-52
2024/01/27 06:06:38;;;;;;;1.47;1.47;;;;;;;-1.05;100.00;100543.47;4161110;28;20304;-51
2024/01/27 06:08:41;;;;;;;2.83;2.10;;;;;;;-1.07;100.00;100548.97;4172471;28;20213;-51
2024/01/27 06:10:43;;;;;;;2.50;2.40;;;;;;;-1.07;100.00;100551.66;4173993;28;20208;-50
2024/01/27 06:12:44;;;;;;;1.63;1.50;;;;;;;-1.03;100.00;100554.94;4176815;28;20249;-51
2024/01/27 06:14:46;;;;;;;3.10;2.80;;;;;;;-0.99;100.00;100561.78;4173616;28;20647;-51
2024/01/27 06:16:48;;;;;;;3.00;2.00;;;;;;;-0.92;100.00;100558.47;4191196;28;20204;-51
2024/01/27 06:18:50;;;;;;;2.57;2.37;;;;;;;-1.04;100.00;100561.28;4172821;28;20208;-51
2024/01/27 06:20:52;;;;;;;6.20;2.90;;;;;;;-1.08;100.00;100562.53;4174403;28;20319;-51
2024/01/27 06:22:54;;;;;;;2.13;2.03;;;;;;;-1.08;100.00;100567.91;4173585;28;20229;-52
2024/01/27 06:24:56;;;;;;;1.70;1.63;;;;;;;-1.10;100.00;100565.34;4192104;28;20216;-51
2024/01/27 06:26:57;;;;;;;1.67;1.67;;;;;;;-1.05;100.00;100559.59;4176067;28;20208;-51
2024/01/27 06:29:00;;;;;;;1.67;1.57;;;;;;;-1.04;100.00;100561.28;4176638;28;20216;-51
2024/01/27 06:31:03;;;;;;;1.33;1.33;;;;;;;-1.08;100.00;100563.38;4176262;28;20206;-51
2024/01/27 06:33:05;;;;;;;2.17;2.00;;;;;;;-1.09;100.00;100560.84;4189165;28;20223;-51
2024/01/27 06:35:07;;;;;;;2.57;2.47;;;;;;;-1.08;100.00;100562.53;4157517;28;22467;-50
2024/01/27 06:37:09;;;;;;;1.93;1.83;;;;;;;-1.08;100.00;100559.84;4191511;28;20265;-50
2024/01/27 06:39:11;;;;;;;3.03;2.83;;;;;;;-1.03;100.00;100554.94;4174247;28;20910;-51
2024/01/27 06:41:13;;;;;;;3.07;2.97;;;;;;;-1.08;100.00;100557.19;4174039;28;20271;-51
2024/01/27 06:43:15;;;;;;;2.47;2.37;;;;;;;-1.10;100.00;100559.97;4192579;28;20227;-51
2024/01/27 06:45:17;;;;;;;2.97;2.77;;;;;;;-1.10;100.00;100559.09;4168494;28;20216;-52
2024/01/27 06:47:19;;;;;;;8.03;2.33;;;;;;;-1.14;100.00;100561.19;4173847;28;20204;-52
2024/01/27 06:49:20;;;;;;;5.10;2.33;;;;;;;-1.11;100.00;100558.28;4169053;28;20211;-52
2024/01/27 06:51:22;;;;;;;2.03;1.93;;;;;;;-1.16;100.00;100567.66;4174527;28;20212;-52
2024/01/27 06:53:24;;;;;;;2.00;1.90;;;;;;;-1.18;100.00;100561.59;4171363;28;20236;-51
2024/01/27 06:55:27;;;;;;;5.23;2.73;;;;;;;-1.19;100.00;100558.06;4171364;28;20215;-51
2024/01/27 06:57:28;;;;;;;1.70;1.60;;;;;;;-1.21;100.00;100556.47;4181670;28;20220;-51
2024/01/27 06:59:30;;;;;;;2.10;2.00;;;;;;;-1.24;100.00;100562.09;4154760;28;20216;-51
2024/01/27 07:01:32;;;;;;;2.07;1.97;;;;;;;-1.06;100.00;100556.06;4154120;28;20240;-50
2024/01/27 07:03:34;;;;;;;3.20;3.00;;;;;;;-1.18;100.00;100561.59;4161236;28;20240;-51
2024/01/27 07:05:38;;;;;;;2.00;2.00;;;;;;;-1.17;100.00;100565.97;4154730;28;20755;-51
2024/01/27 07:07:41;;;;;;;2.23;2.13;;;;;;;-1.19;100.00;100566.13;4156824;28;20767;-51
2024/01/27 07:09:43;;;;;;;2.33;2.13;;;;;;;-1.17;100.00;100574.88;4158719;28;20655;-51
2024/01/27 07:11:45;;;;;;;2.27;1.93;;;;;;;-1.30;100.00;100573.31;4176916;28;20207;-52
2024/01/27 07:13:46;;;;;;;1.53;1.53;;;;;;;-1.34;100.00;100572.72;4158708;28;20670;-52
2024/01/27 07:15:48;;;;;;;2.93;1.60;;;;;;;-1.33;100.00;100568.22;4160291;28;20870;-51
2024/01/27 07:17:50;;;;;;;10.03;2.90;;;;;;;-1.30;100.00;100573.31;4159029;28;20204;-52
2024/01/27 07:19:52;;;;;;;1.67;1.60;;;;;;;-1.28;100.00;100566.00;4158476;28;20213;-51
2024/01/27 07:21:55;;;;;;;1.77;1.77;;;;;;;-1.32;100.00;100572.59;4159178;28;20252;-51
2024/01/27 07:23:57;;;;;;;2.53;2.43;;;;;;;-1.33;100.00;100562.84;4157013;28;20212;-52
2024/01/27 07:26:03;;;;;;;1.60;1.50;;;;;;;-1.23;100.00;100563.78;4177344;28;20204;-52
2024/01/27 07:28:05;;;;;;;17.07;2.13;;;;;;;-1.22;100.00;100566.34;4158997;28;20251;-52
2024/01/27 07:30:09;;;;;;;1.97;1.87;;;;;;;-1.28;100.00;100574.91;4160034;28;20208;-52
2024/01/27 07:32:13;;;;;;;2.53;2.40;;;;;;;-1.29;100.00;100581.25;4159524;28;20201;-51
2024/01/27 07:34:15;;;;;;;5.03;2.03;;;;;;;-1.31;100.00;100582.34;4159400;28;20205;-53
2024/01/27 07:36:17;;;;;;;2.50;2.40;;;;;;;-1.34;100.00;100577.25;4160082;28;20203;-52
2024/01/27 07:38:19;;;;;;;1.77;1.60;;;;;;;-1.39;100.00;100579.44;4159864;28;20654;-51
2024/01/27 07:40:20;;;;;;;2.57;2.47;;;;;;;-1.39;100.00;100584.81;4157749;28;20215;-52
2024/01/27 07:42:22;;;;;;;2.57;2.47;;;;;;;-1.40;100.00;100561.63;4160156;28;20225;-51
2024/01/27 07:44:24;;;;;;;2.87;2.70;;;;;;;-1.38;100.00;100565.91;4159912;28;20267;-51
2024/01/27 07:46:26;;;;;;;1.70;1.70;;;;;;;-1.37;100.00;100554.19;4143541;28;20303;-54
2024/01/27 07:48:27;;;;;;;1.97;1.87;;;;;;;-1.29;100.00;100558.94;4156335;28;20209;-53
2024/01/27 07:50:29;;;;;;;2.40;2.30;;;;;;;-1.21;100.00;100569.91;4138552;28;20683;-53
2024/01/27 07:52:31;;;;;;;7.67;2.33;;;;;;;-1.32;100.00;100565.41;4153560;28;20718;-54
2024/01/27 07:54:38;;;;;;;3.93;3.33;;;;;;;-1.33;100.00;100569.03;4163879;28;20216;-52
2024/01/27 07:56:41;;;;;;;9.73;3.27;;;;;;;-1.34;100.00;100572.72;4166095;28;20721;-54
2024/01/27 07:58:43;;;;;;;2.77;2.60;;;;;;;-1.31;100.00;100571.63;4175116;28;20215;-52
2024/01/27 08:00:44;;;;;;;3.90;3.63;;;;;;;-1.29;100.00;100569.69;4173178;28;20231;-51
2024/01/27 08:02:46;;;;;;;2.90;2.63;;;;;;;-1.26;100.00;100570.28;4176213;28;20256;-52
2024/01/27 08:04:48;;;;;;;2.47;2.37;;;;;;;-1.19;100.00;100571.50;4184799;28;20207;-53
2024/01/27 08:06:51;;;;;;;2.43;2.33;;;;;;;-1.21;100.00;100572.59;4175919;28;20208;-52
2024/01/27 08:08:53;;;;;;;2.27;2.17;;;;;;;-1.19;100.00;100578.69;4174420;28;20329;-54
2024/01/27 08:10:54;;;;;;;2.37;2.27;;;;;;;-1.17;100.00;100574.03;4175216;28;20204;-52
2024/01/27 08:12:56;;;;;;;2.27;2.17;;;;;;;-1.14;100.00;100582.69;4173938;28;20234;-52
2024/01/27 08:14:58;;;;;;;1.50;1.50;;;;;;;-0.99;100.00;100580.56;4178925;28;20227;-55
2024/01/27 08:17:00;;;;;;;1.67;1.60;;;;;;;-0.40;100.00;100587.16;4174965;28;20212;-52
2024/01/27 08:19:02;;;;;;;2.10;1.87;;;;;;;0.21;100.00;100585.28;4174863;28;20261;-54
2024/01/27 08:21:04;;;;;;;2.25;2.15;;;;;;;0.82;100.00;100592.31;4175050;28;20224;-54
2024/01/27 08:23:07;;;;;;;2.20;2.10;;;;;;;1.78;100.00;100594.13;4168082;28;20282;-52
2024/01/27 08:25:09;;;;;;;5.55;2.17;;;;;;;2.65;100.00;100591.03;4190095;28;20696;-53
2024/01/27 08:27:13;;;;;;;1.67;1.58;;;;;;;3.26;100.00;100592.09;4169891;28;20207;-53
2024/01/27 08:29:15;;;;;;;1.98;1.73;;;;;;;3.71;100.00;100608.25;4174592;28;20214;-52
2024/01/27 08:31:17;;;;;;;3.03;2.83;;;;;;;3.49;100.00;100598.78;4175036;28;20218;-52
2024/01/27 08:33:19;;;;;;;2.20;1.83;;;;;;;2.70;100.00;100594.16;4152116;28;20224;-52
2024/01/27 08:35:23;;;;;;;3.30;1.80;;;;;;;2.92;100.00;100598.28;4173576;28;20216;-52
2024/01/27 08:37:25;;;;;;;2.05;1.95;;;;;;;2.94;100.00;100602.53;4190437;28;20207;-52
2024/01/27 08:39:27;;;;;;;1.85;1.73;;;;;;;3.17;100.00;100601.13;4171077;28;20669;-52
2024/01/27 08:41:29;;;;;;;3.30;1.75;;;;;;;4.12;100.00;100605.75;4174417;28;20228;-52
2024/01/27 08:43:31;;;;;;;2.28;2.08;;;;;;;4.31;99.27;100605.53;4190930;28;20231;-53
2024/01/27 08:45:32;;;;;;;2.35;2.03;;;;;;;5.22;100.00;100600.22;4174968;28;20259;-52
2024/01/27 08:47:35;;;;;;;3.35;3.08;;;;;;;4.86;100.00;100593.28;4172737;28;20694;-53
2024/01/27 08:49:37;;;;;;;2.55;2.33;;;;;;;5.43;99.44;100587.03;4175395;28;20215;-53
2024/01/27 08:51:39;;;;;;;7.93;2.53;;;;;;;6.00;96.44;100596.97;4169403;28;20208;-52
2024/01/27 08:53:42;;;;;;;4.65;2.08;;;;;;;6.47;91.61;100600.66;4173086;28;20224;-56
2024/01/27 08:55:43;;;;;;;1.50;1.40;;;;;;;5.67;86.23;100600.66;4191000;28;20203;-51
2024/01/27 08:57:48;;;;;;;2.33;2.13;;;;;;;5.85;90.33;100594.09;4157160;28;20209;-55
2024/01/27 08:59:49;;;;;;;2.05;1.85;;;;;;;6.44;87.59;100601.00;4150756;28;20220;-52
2024/01/27 09:01:51;;;;;;;1.58;1.40;;;;;;;7.24;84.83;100600.72;4153021;28;20372;-54
2024/01/27 09:03:53;;;;;;;2.13;1.58;;;;;;;6.26;83.46;100603.06;4156984;28;20262;-52
2024/01/27 09:05:55;;;;;;;1.77;1.67;;;;;;;6.72;83.26;100594.13;4170686;28;20689;-53
2024/01/27 09:07:57;;;;;;;1.48;1.30;;;;;;;6.03;82.82;100602.06;4157574;28;20205;-53
2024/01/27 09:09:59;;;;;;;2.10;1.90;;;;;;;5.52;84.18;100602.31;4173957;28;20223;-52
2024/01/27 09:12:00;;;;;;;2.20;2.00;;;;;;;5.41;88.01;100597.19;4159201;28;20200;-52
2024/01/27 09:14:04;;;;;;;3.38;1.75;;;;;;;6.03;83.91;100597.47;4174552;28;20294;-55
2024/01/27 09:16:07;;;;;;;1.75;1.63;;;;;;;5.30;86.58;100597.53;4158097;28;20670;-52
2024/01/27 09:18:09;;;;;;;1.98;1.70;;;;;;;4.82;87.76;100591.94;4159117;28;20208;-51
2024/01/27 09:20:14;;;;;;;2.22;2.05;;;;;;;5.17;90.49;100589.00;4153455;28;20206;-52
2024/01/27 09:22:16;;;;;;;3.53;3.33;;;;;;;4.70;91.04;100579.69;4151096;28;20240;-53
2024/01/27 09:24:18;;;;;;;2.05;1.95;;;;;;;5.02;87.77;100577.09;4156548;28;20205;-50
2024/01/27 09:26:20;;;;;;;2.83;2.30;;;;;;;5.08;89.44;100571.00;4173375;28;20204;-50